Terminal Aerodrome Forecast
Issued by NWS

Home | Current Version | Previous Version | Text Only | Print | Product List | Glossary On
Versions: 1 2 3 4 5 6 7 8 9 10 11 12 13 14 15 16
000
FTAK31 PANC 291132
TAFADU
TAF
PADU 291132Z 2912/3012 14003KT P6SM FEW011 OVC020
      TEMPO 2912/2915 5SM -RA
     FM291800 11004KT P6SM -RA SCT007 OVC015
     FM300000 13004KT 6SM -RA BR OVC015=

USA.gov is the U.S. government's official web portal to all federal, state and local government web resources and services.